Time;durP1;ratioP1;P1;durP2;ratioP2;P2;SDS_P1;SDS_P2;PMS_P1;PMS_P2;Temp;Humidity;BMP_temperature;BMP_pressure;BME280_temperature;BME280_humidity;BME280_pressure;Samples;Min_cycle;Max_cycle;Signal;HPM_P1;HPM_P2
2021/12/16 00:04:36;;;;;;;30.88;19.73;;;;;;;7.96;100.00;97922.94;4983437;28;20509;-43
2021/12/16 00:09:47;;;;;;;33.03;20.40;;;;;;;8.82;100.00;97922.09;4987638;28;20065;-43
2021/12/16 00:29:18;;;;;;;33.88;21.40;;;;;;;7.86;100.00;97911.31;5005799;28;20069;-47
2021/12/16 00:31:53;;;;;;;33.67;20.13;;;;;;;7.31;100.00;97918.00;4999027;28;20076;-45
2021/12/16 00:34:23;;;;;;;31.23;19.60;;;;;;;7.85;100.00;97920.13;4987245;28;20540;-43
2021/12/16 00:36:52;;;;;;;;;;;;;;;7.92;100.00;97918.81;5017081;28;20073;-47
2021/12/16 00:39:23;;;;;;;35.60;19.77;;;;;;;7.59;100.00;97919.03;5002704;28;19991;-44
2021/12/16 00:41:57;;;;;;;33.75;20.35;;;;;;;7.59;100.00;97911.16;5004102;28;20064;-43
2021/12/16 00:45:00;;;;;;;34.85;20.95;;;;;;;7.63;100.00;97910.03;5003386;28;20282;-47
2021/12/16 00:47:32;;;;;;;31.10;18.90;;;;;;;7.26;100.00;97922.69;5003891;28;20464;-41
2021/12/16 00:50:22;;;;;;;32.58;19.65;;;;;;;7.93;100.00;97911.78;5003260;28;20121;-45
2021/12/16 00:55:46;;;;;;;31.88;19.27;;;;;;;7.78;100.00;97924.91;5005166;28;20066;-47
2021/12/16 00:58:16;;;;;;;33.20;19.85;;;;;;;7.41;100.00;97936.69;5007809;28;20064;-48
2021/12/16 01:00:54;;;;;;;35.83;20.25;;;;;;;7.48;100.00;97932.78;5016664;28;20081;-49
2021/12/16 01:03:34;;;;;;;35.75;20.75;;;;;;;7.37;100.00;97935.19;5007993;28;20601;-47
2021/12/16 01:06:29;;;;;;;35.72;21.75;;;;;;;7.63;100.00;97933.66;5006234;28;20061;-47
2021/12/16 01:34:22;;;;;;;34.05;19.75;;;;;;;8.19;100.00;97936.47;5003692;28;20555;-48
2021/12/16 01:37:16;;;;;;;36.75;20.60;;;;;;;8.44;100.00;97939.31;4981043;28;20066;-47
2021/12/16 01:45:24;;;;;;;35.22;20.48;;;;;;;8.10;100.00;97935.25;4981990;28;20456;-46
2021/12/16 01:51:17;;;;;;;36.72;20.58;;;;;;;8.12;100.00;97924.63;5009876;27;20563;-48
2021/12/16 01:56:43;;;;;;;35.35;20.60;;;;;;;7.49;100.00;97926.59;4999300;28;20081;-46
2021/12/16 01:59:18;;;;;;;44.00;24.00;;;;;;;7.63;100.00;97919.69;4997136;28;20066;-51
2021/12/16 02:01:46;;;;;;;43.90;23.88;;;;;;;7.75;100.00;97919.81;5001930;28;20061;-47
2021/12/16 02:04:22;;;;;;;36.90;21.30;;;;;;;7.31;100.00;97918.00;5017841;28;20073;-50
2021/12/16 02:07:06;;;;;;;35.55;21.02;;;;;;;7.01;100.00;97925.00;5003281;28;20069;-47
2021/12/16 02:09:38;;;;;;;39.25;21.42;;;;;;;7.23;100.00;97914.16;4998473;28;20486;-45
2021/12/16 02:12:17;;;;;;;37.03;20.92;;;;;;;7.24;100.00;97923.72;4997511;28;20542;-45
2021/12/16 02:29:06;;;;;;;36.38;20.38;;;;;;;8.28;100.00;97930.66;5017013;27;20062;-48
2021/12/16 02:31:49;;;;;;;38.70;21.67;;;;;;;8.62;100.00;97928.59;5012577;28;20588;-47
2021/12/16 02:34:26;;;;;;;35.42;20.67;;;;;;;8.19;100.00;97925.94;4993762;28;20065;-50
2021/12/16 02:36:56;;;;;;;36.83;20.77;;;;;;;8.60;100.00;97930.47;5002290;28;20476;-45
2021/12/16 02:39:28;;;;;;;37.85;21.92;;;;;;;8.32;100.00;97919.84;4994324;28;20073;-47
2021/12/16 02:42:00;;;;;;;39.33;22.45;;;;;;;8.19;100.00;97910.19;4997195;28;20495;-48
2021/12/16 02:44:35;;;;;;;41.67;23.90;;;;;;;8.47;100.00;97912.00;5013817;28;20066;-47
2021/12/16 02:49:54;;;;;;;40.67;22.88;;;;;;;8.54;100.00;97908.88;4990818;28;20077;-45
2021/12/16 02:52:26;;;;;;;39.55;23.00;;;;;;;8.45;100.00;97908.63;4998739;28;20066;-45
2021/12/16 02:54:55;;;;;;;41.90;23.92;;;;;;;8.53;100.00;97914.22;5020812;28;20097;-48
2021/12/16 02:57:25;;;;;;;40.10;24.00;;;;;;;8.52;100.00;97918.66;5000038;28;20062;-45
2021/12/16 02:59:54;;;;;;;42.33;26.13;;;;;;;8.62;100.00;97921.56;4997173;28;20073;-45
2021/12/16 03:02:25;;;;;;;44.28;25.48;;;;;;;8.49;100.00;97929.34;4981508;28;20077;-45
2021/12/16 03:04:54;;;;;;;42.97;25.20;;;;;;;8.48;100.00;97930.31;4991553;28;20077;-48
2021/12/16 03:07:24;;;;;;;45.15;26.23;;;;;;;8.37;100.00;97931.88;4999925;28;20086;-50
2021/12/16 03:10:24;;;;;;;46.00;26.42;;;;;;;8.38;100.00;97930.97;5001544;28;20074;-51
2021/12/16 03:13:00;;;;;;;41.67;24.42;;;;;;;8.40;100.00;97932.56;5001290;28;20565;-47
2021/12/16 03:18:24;;;;;;;41.97;24.60;;;;;;;8.41;100.00;97933.41;4980261;28;20069;-43
2021/12/16 03:20:57;;;;;;;42.08;23.63;;;;;;;8.14;100.00;97933.28;4997616;28;20068;-51
2021/12/16 03:23:41;;;;;;;37.50;22.23;;;;;;;8.14;100.00;97931.50;4992938;28;20070;-45
2021/12/16 03:29:29;;;;;;;39.58;23.02;;;;;;;7.94;100.00;97937.09;4971516;28;20641;-44
2021/12/16 03:34:56;;;;;;;41.13;23.25;;;;;;;8.00;100.00;97947.25;4990880;28;20189;-49
2021/12/16 03:37:25;;;;;;;37.63;21.15;;;;;;;7.86;100.00;97955.97;5003101;28;20077;-47
2021/12/16 03:39:58;;;;;;;36.60;21.08;;;;;;;7.66;100.00;97949.25;5001356;28;20069;-44
2021/12/16 03:42:28;;;;;;;36.63;20.98;;;;;;;7.55;100.00;97949.88;4982286;28;20525;-45
2021/12/16 03:44:59;;;;;;;;;;;;;;;7.42;100.00;97954.13;4984376;28;20078;-46
2021/12/16 03:47:36;;;;;;;29.40;17.65;;;;;;;7.24;100.00;97958.66;4990449;28;20408;-47
2021/12/16 03:50:08;;;;;;;31.90;18.30;;;;;;;7.23;100.00;97964.84;5005247;28;20069;-48
2021/12/16 03:52:37;;;;;;;34.88;20.27;;;;;;;7.37;100.00;97975.41;5001562;28;20614;-44
2021/12/16 03:55:08;;;;;;;34.95;20.02;;;;;;;7.45;100.00;97968.88;5013198;28;20081;-49
2021/12/16 03:57:38;;;;;;;33.90;17.02;;;;;;;6.78;100.00;97974.34;4982270;28;20086;-46
2021/12/16 04:00:10;;;;;;;34.60;19.17;;;;;;;7.18;100.00;97974.75;5001031;28;20057;-46
2021/12/16 04:02:38;;;;;;;37.83;21.13;;;;;;;7.32;100.00;97981.84;4989540;28;20067;-45
2021/12/16 04:05:12;;;;;;;35.60;19.95;;;;;;;7.44;100.00;97985.56;4989441;28;20086;-44
2021/12/16 04:07:41;;;;;;;33.17;19.08;;;;;;;7.04;100.00;97977.28;5004677;28;20843;-46
2021/12/16 04:10:15;;;;;;;34.75;20.17;;;;;;;7.21;100.00;97978.97;5008040;28;20085;-48
2021/12/16 04:12:43;;;;;;;34.30;19.17;;;;;;;7.21;100.00;97986.84;5005100;28;20077;-49
2021/12/16 04:15:12;;;;;;;34.95;19.77;;;;;;;6.92;100.00;97993.69;5002568;28;20456;-44
2021/12/16 04:17:41;;;;;;;34.53;19.23;;;;;;;6.87;100.00;97984.31;5007362;28;20065;-48
2021/12/16 04:20:27;;;;;;;33.25;19.05;;;;;;;6.92;100.00;97997.19;4998222;28;20073;-46
2021/12/16 04:22:56;;;;;;;35.53;19.40;;;;;;;7.08;100.00;97990.16;5004642;28;20074;-47
2021/12/16 04:25:30;;;;;;;32.55;19.05;;;;;;;7.06;100.00;97980.69;5001153;28;20109;-49
2021/12/16 04:28:00;;;;;;;35.10;20.25;;;;;;;7.07;100.00;97977.13;5001878;28;20089;-49
2021/12/16 04:30:31;;;;;;;33.22;17.90;;;;;;;6.87;100.00;97976.44;5000165;28;20085;-45
2021/12/16 04:33:00;;;;;;;34.08;18.00;;;;;;;6.70;100.00;97987.00;5002715;28;20082;-46
2021/12/16 04:35:28;;;;;;;34.28;17.90;;;;;;;6.80;100.00;97992.59;5006779;28;20069;-49
2021/12/16 04:37:57;;;;;;;33.72;17.67;;;;;;;6.79;100.00;98004.03;5004718;28;20065;-48
2021/12/16 04:40:28;;;;;;;33.63;18.85;;;;;;;6.88;100.00;97993.88;4998778;28;20068;-47
2021/12/16 04:43:01;;;;;;;33.35;19.02;;;;;;;6.72;100.00;98003.50;5004457;28;20081;-44
2021/12/16 04:45:30;;;;;;;33.92;18.73;;;;;;;6.91;100.00;98005.97;4999746;28;20066;-47
2021/12/16 04:47:59;;;;;;;33.30;18.60;;;;;;;6.90;100.00;98007.75;4999701;28;20509;-47
2021/12/16 04:50:28;;;;;;;33.58;18.02;;;;;;;6.90;100.00;98004.28;4990028;28;20077;-45
2021/12/16 04:52:57;;;;;;;32.67;18.13;;;;;;;7.08;100.00;98007.66;4988319;28;20084;-46
2021/12/16 04:55:27;;;;;;;32.17;18.27;;;;;;;7.30;100.00;98007.34;4995251;28;20152;-46
2021/12/16 04:57:55;;;;;;;34.30;18.95;;;;;;;7.27;100.00;98002.25;4979360;28;20093;-45
2021/12/16 05:00:26;;;;;;;32.65;18.65;;;;;;;6.73;100.00;98004.34;4980003;28;20541;-47
2021/12/16 05:02:55;;;;;;;35.22;20.00;;;;;;;6.65;100.00;98013.47;4994310;28;20090;-47
2021/12/16 05:05:24;;;;;;;31.13;17.90;;;;;;;6.78;100.00;98011.06;4990752;28;20085;-48
2021/12/16 05:07:53;;;;;;;35.50;18.38;;;;;;;6.36;100.00;98011.53;4982483;28;20077;-48
2021/12/16 05:10:22;;;;;;;32.08;18.67;;;;;;;6.13;100.00;98010.13;4976947;28;20081;-48
2021/12/16 05:12:55;;;;;;;26.77;16.27;;;;;;;6.13;100.00;98018.00;5004309;28;20092;-46
2021/12/16 05:15:29;;;;;;;30.10;17.45;;;;;;;6.44;100.00;98016.41;4999949;28;20080;-47
2021/12/16 05:17:59;;;;;;;29.83;17.10;;;;;;;6.71;100.00;98014.06;4986517;28;20077;-45
2021/12/16 05:20:30;;;;;;;29.08;16.42;;;;;;;6.75;100.00;98023.47;5000027;28;20645;-48
2021/12/16 05:25:59;;;;;;;31.90;16.67;;;;;;;6.54;100.00;98021.06;4986650;28;20649;-49
2021/12/16 05:28:29;;;;;;;28.27;16.08;;;;;;;6.48;100.00;98029.25;5004468;28;20058;-47
2021/12/16 05:30:58;;;;;;;28.98;16.67;;;;;;;6.65;100.00;98025.75;5004836;28;20086;-46
2021/12/16 05:33:27;;;;;;;30.73;16.45;;;;;;;6.47;100.00;98024.06;5003215;28;20061;-49
2021/12/16 05:35:56;;;;;;;28.15;15.80;;;;;;;6.41;100.00;98028.72;5001792;28;20076;-44
2021/12/16 05:38:27;;;;;;;30.77;17.02;;;;;;;6.07;100.00;98034.84;5003257;28;20524;-53
2021/12/16 05:40:57;;;;;;;28.20;15.98;;;;;;;6.41;100.00;98030.50;5009761;28;20080;-46
2021/12/16 05:43:28;;;;;;;27.25;16.25;;;;;;;6.60;100.00;98033.84;5007156;28;20143;-48
2021/12/16 05:45:58;;;;;;;29.50;16.95;;;;;;;6.39;100.00;98032.34;5002974;28;20086;-49
2021/12/16 05:48:28;;;;;;;;;;;;;;;6.27;100.00;98041.69;5006748;28;20479;-47
2021/12/16 05:50:59;;;;;;;27.27;15.50;;;;;;;6.24;100.00;98047.09;5003143;28;19967;-42
2021/12/16 05:53:28;;;;;;;27.23;15.70;;;;;;;6.59;100.00;98041.78;5007006;28;20069;-42
2021/12/16 05:55:59;;;;;;;26.88;15.68;;;;;;;6.72;100.00;98048.09;5012053;28;20057;-43
2021/12/16 05:58:28;;;;;;;27.92;15.50;;;;;;;6.48;100.00;98046.75;5000170;28;20066;-44
2021/12/16 06:00:59;;;;;;;25.88;15.88;;;;;;;6.55;100.00;98045.50;4983813;28;20090;-49
2021/12/16 06:03:29;;;;;;;26.55;15.57;;;;;;;6.73;100.00;98052.38;4984703;28;20101;-44
2021/12/16 06:05:58;;;;;;;28.05;16.38;;;;;;;6.59;100.00;98050.50;5000100;28;20073;-46
2021/12/16 06:08:27;;;;;;;27.70;14.90;;;;;;;6.27;100.00;98051.34;5005866;28;20149;-46
2021/12/16 06:14:08;;;;;;;26.30;14.35;;;;;;;6.31;100.00;98061.56;4984963;28;20065;-48
2021/12/16 06:22:35;;;;;;;27.33;16.13;;;;;;;6.81;100.00;98065.97;4994802;28;20077;-45
2021/12/16 06:27:53;;;;;;;28.02;16.17;;;;;;;7.07;100.00;98061.91;5012184;28;20376;-45
2021/12/16 06:30:24;;;;;;;29.98;16.73;;;;;;;6.20;100.00;98063.91;5004932;28;20073;-47
2021/12/16 06:32:55;;;;;;;23.52;13.65;;;;;;;6.42;100.00;98055.78;5002815;28;20080;-48
2021/12/16 06:35:25;;;;;;;21.25;12.38;;;;;;;6.09;100.00;98064.44;5004340;28;20263;-45
2021/12/16 06:37:53;;;;;;;21.98;12.43;;;;;;;6.40;100.00;98061.09;5009776;28;20080;-45
2021/12/16 06:40:22;;;;;;;21.63;12.35;;;;;;;6.49;100.00;98056.31;5004515;28;20078;-46
2021/12/16 06:42:54;;;;;;;23.13;13.45;;;;;;;6.62;100.00;98062.59;4988943;28;20086;-50
2021/12/16 06:45:32;;;;;;;20.15;12.10;;;;;;;6.52;100.00;98064.00;4982011;28;20116;-51
2021/12/16 06:48:05;;;;;;;19.70;11.00;;;;;;;6.56;100.00;98058.50;4989246;28;20078;-44
2021/12/16 06:50:43;;;;;;;18.58;11.00;;;;;;;6.73;100.00;98068.13;5001751;28;20061;-49
2021/12/16 06:53:16;;;;;;;16.92;9.82;;;;;;;6.37;100.00;98066.50;5007556;28;20079;-46
2021/12/16 06:55:50;;;;;;;18.67;10.65;;;;;;;6.84;100.00;98064.91;4999461;28;20058;-51
2021/12/16 06:58:27;;;;;;;16.48;10.07;;;;;;;6.89;100.00;98070.78;4987586;28;20054;-44
2021/12/16 07:01:06;;;;;;;16.45;10.20;;;;;;;6.98;100.00;98077.28;4986218;28;20447;-45
2021/12/16 07:03:45;;;;;;;17.40;10.38;;;;;;;7.07;100.00;98075.03;4984486;28;20403;-45
2021/12/16 07:06:17;;;;;;;20.10;11.85;;;;;;;7.18;100.00;98084.94;4987450;28;20405;-48
2021/12/16 07:08:47;;;;;;;20.75;12.18;;;;;;;7.06;100.00;98090.88;4983749;28;20073;-46
2021/12/16 07:11:17;;;;;;;19.33;11.50;;;;;;;7.19;100.00;98089.28;4984797;28;20070;-50
2021/12/16 07:13:56;;;;;;;20.92;11.70;;;;;;;6.99;100.00;98092.13;4983669;28;20465;-49
2021/12/16 07:16:26;;;;;;;19.38;10.52;;;;;;;7.22;100.00;98096.94;4987191;28;20672;-51
2021/12/16 07:18:57;;;;;;;18.73;11.10;;;;;;;6.96;100.00;98105.41;5011144;28;20081;-49
2021/12/16 07:21:25;;;;;;;22.98;12.20;;;;;;;7.07;100.00;98110.91;5013864;28;20348;-44
2021/12/16 07:23:54;;;;;;;24.65;13.32;;;;;;;7.07;100.00;98110.91;4988209;28;20085;-46
2021/12/16 07:26:22;;;;;;;24.10;14.02;;;;;;;7.01;100.00;98114.69;4987521;28;20069;-51
2021/12/16 07:28:51;;;;;;;23.25;13.55;;;;;;;6.98;100.00;98117.47;4998322;28;20441;-51
2021/12/16 07:31:20;;;;;;;23.30;13.68;;;;;;;6.74;100.00;98114.38;5006810;28;20081;-50
2021/12/16 07:33:53;;;;;;;22.17;12.65;;;;;;;6.67;100.00;98113.00;4980144;28;20073;-49
2021/12/16 07:36:24;;;;;;;21.98;13.18;;;;;;;6.69;100.00;98118.19;4984655;28;20072;-47
2021/12/16 07:38:53;;;;;;;21.95;12.70;;;;;;;7.10;100.00;98106.34;4983708;28;20081;-50
2021/12/16 07:41:25;;;;;;;24.38;13.82;;;;;;;7.10;100.00;98114.22;5005461;28;20068;-51
2021/12/16 07:43:58;;;;;;;23.60;13.27;;;;;;;7.42;100.00;98119.50;4998821;28;20078;-51
2021/12/16 07:46:30;;;;;;;21.50;13.05;;;;;;;7.40;100.00;98121.38;4983977;28;20465;-52
2021/12/16 07:49:00;;;;;;;23.38;13.75;;;;;;;7.78;100.00;98121.88;4989480;28;20555;-47
2021/12/16 07:51:30;;;;;;;23.77;13.85;;;;;;;7.83;100.00;98121.59;4982402;28;20077;-48
2021/12/16 07:53:58;;;;;;;24.33;13.88;;;;;;;7.80;100.00;98129.66;5002215;28;20548;-47
2021/12/16 07:56:27;;;;;;;25.15;13.50;;;;;;;7.43;100.00;98130.84;4992667;28;20062;-48
2021/12/16 07:58:56;;;;;;;23.98;14.13;;;;;;;7.38;100.00;98131.94;4981288;28;20066;-48
2021/12/16 08:01:26;;;;;;;23.80;14.15;;;;;;;7.25;100.00;98128.28;4985848;28;20138;-46
2021/12/16 08:03:55;;;;;;;23.25;13.65;;;;;;;7.08;100.00;98130.97;4986361;28;20219;-49
2021/12/16 08:06:27;;;;;;;24.37;14.67;;;;;;;6.89;100.00;98131.94;4981835;28;20081;-44
2021/12/16 08:09:00;;;;;;;23.40;13.95;;;;;;;7.33;100.00;98136.59;5003449;28;20501;-50
2021/12/16 08:11:31;;;;;;;21.83;13.63;;;;;;;7.59;100.00;98129.06;4991467;28;20073;-48
2021/12/16 08:14:03;;;;;;;24.38;13.55;;;;;;;7.89;100.00;98128.28;4992234;28;20080;-49
2021/12/16 08:16:32;;;;;;;22.42;13.88;;;;;;;7.77;100.00;98130.66;5010019;28;20073;-52
2021/12/16 08:19:00;;;;;;;20.55;12.98;;;;;;;7.76;100.00;98133.38;5007077;28;20089;-50
2021/12/16 08:21:29;;;;;;;21.80;12.57;;;;;;;7.49;100.00;98139.22;5007592;28;20516;-48
2021/12/16 08:24:00;;;;;;;21.55;12.50;;;;;;;7.84;100.00;98141.66;5007336;28;20061;-50
2021/12/16 08:26:30;;;;;;;21.67;11.55;;;;;;;7.46;100.00;98146.41;5005042;28;20097;-47
2021/12/16 08:28:58;;;;;;;21.27;13.25;;;;;;;7.78;100.00;98142.88;5008502;28;20563;-54
2021/12/16 08:31:27;;;;;;;19.50;11.88;;;;;;;8.21;100.00;98145.69;5010915;28;20479;-50
2021/12/16 08:33:56;;;;;;;20.67;12.38;;;;;;;8.31;100.00;98144.22;5011076;28;20086;-50
2021/12/16 08:36:26;;;;;;;19.17;11.63;;;;;;;8.25;100.00;98147.19;4987990;28;20085;-51
2021/12/16 08:38:54;;;;;;;20.52;12.10;;;;;;;8.50;100.00;98151.09;4984645;28;20579;-54
2021/12/16 08:41:28;;;;;;;18.80;11.35;;;;;;;8.28;100.00;98154.06;4985506;28;20078;-52
2021/12/16 08:43:56;;;;;;;17.90;10.70;;;;;;;8.39;100.00;98158.72;4994528;28;20401;-52
2021/12/16 08:46:29;;;;;;;17.40;11.30;;;;;;;7.63;100.00;98159.47;5007566;28;20088;-52
2021/12/16 08:48:59;;;;;;;17.40;10.77;;;;;;;8.01;100.00;98159.09;5010449;28;20448;-49
2021/12/16 08:51:29;;;;;;;17.65;10.88;;;;;;;7.64;100.00;98163.81;5011097;28;20073;-51
2021/12/16 08:53:58;;;;;;;17.23;10.93;;;;;;;7.78;100.00;98165.66;5002962;28;20073;-48
2021/12/16 08:56:30;;;;;;;17.95;10.77;;;;;;;8.16;100.00;98158.25;5006291;28;20096;-49
2021/12/16 08:59:00;;;;;;;16.35;10.45;;;;;;;8.20;100.00;98161.56;5014316;28;20081;-50
2021/12/16 09:01:32;;;;;;;16.20;9.52;;;;;;;8.09;100.00;98160.38;5002857;28;20076;-52
2021/12/16 09:04:01;;;;;;;15.63;9.93;;;;;;;8.18;100.00;98168.66;4982551;28;20085;-51
2021/12/16 09:06:30;;;;;;;15.32;9.55;;;;;;;8.06;100.00;98172.84;5004013;28;20084;-50
2021/12/16 09:08:59;;;;;;;13.93;9.20;;;;;;;8.16;100.00;98178.44;5005934;28;20080;-53
2021/12/16 09:11:32;;;;;;;13.53;9.00;;;;;;;8.49;100.00;98183.53;5007617;28;20069;-48
2021/12/16 09:14:02;;;;;;;13.30;8.40;;;;;;;8.45;100.00;98179.41;5006110;28;20077;-50
2021/12/16 09:16:33;;;;;;;12.38;7.78;;;;;;;8.23;100.00;98179.78;5004557;28;20069;-51
2021/12/16 09:19:02;;;;;;;12.73;8.52;;;;;;;8.71;100.00;98186.63;4986693;28;20547;-46
2021/12/16 09:21:34;;;;;;;16.58;10.23;;;;;;;8.42;100.00;98190.09;5002889;28;21448;-52
2021/12/16 09:24:03;;;;;;;16.80;10.90;;;;;;;8.53;100.00;98196.44;5009696;28;20072;-47
2021/12/16 09:26:33;;;;;;;16.35;10.48;;;;;;;8.21;100.00;98192.16;5007413;28;20070;-48
2021/12/16 09:29:01;;;;;;;15.63;10.25;;;;;;;7.99;100.00;98193.38;5004176;28;20149;-47
2021/12/16 09:31:31;;;;;;;17.77;10.77;;;;;;;8.06;100.00;98202.59;5006816;28;20069;-47
2021/12/16 09:34:05;;;;;;;15.00;10.05;;;;;;;8.06;100.00;98194.72;5012941;28;20078;-45
2021/12/16 09:36:35;;;;;;;15.68;10.02;;;;;;;8.14;100.00;98193.44;5001237;28;21543;-49
2021/12/16 09:39:05;;;;;;;14.33;9.93;;;;;;;7.84;100.00;98192.44;5014230;28;20073;-43
2021/12/16 09:41:35;;;;;;;18.38;10.65;;;;;;;8.38;100.00;98189.44;4999285;28;20492;-47
2021/12/16 09:44:04;;;;;;;16.73;10.85;;;;;;;8.42;100.00;98196.19;5005291;28;20676;-51
2021/12/16 09:46:33;;;;;;;13.63;9.63;;;;;;;8.71;100.00;98196.31;5008127;28;20065;-52
2021/12/16 09:49:02;;;;;;;13.65;9.57;;;;;;;8.86;100.00;98192.75;5005025;28;20089;-45
2021/12/16 09:51:41;;;;;;;13.00;9.00;;;;;;;8.68;100.00;98197.31;5010791;28;20532;-50
2021/12/16 09:54:12;;;;;;;11.93;8.30;;;;;;;8.81;100.00;98189.56;5007690;28;20061;-49
2021/12/16 09:56:45;;;;;;;13.65;8.45;;;;;;;8.53;100.00;98191.19;5005337;28;20078;-50
2021/12/16 09:59:15;;;;;;;14.82;9.93;;;;;;;8.21;100.00;98194.78;5001749;28;20521;-44
2021/12/16 10:01:45;;;;;;;15.75;10.38;;;;;;;8.64;100.00;98190.56;5013929;28;20058;-49
2021/12/16 10:04:19;;;;;;;14.52;9.30;;;;;;;8.53;100.00;98190.31;5003543;28;20081;-51
2021/12/16 10:06:50;;;;;;;14.32;10.07;;;;;;;8.27;100.00;98189.19;5009475;28;20086;-54
2021/12/16 10:09:19;;;;;;;14.63;10.20;;;;;;;8.32;100.00;98180.06;5009174;28;20064;-45
2021/12/16 10:11:52;;;;;;;17.52;10.75;;;;;;;8.44;100.00;98180.34;5005005;28;20057;-49
2021/12/16 10:14:43;;;;;;;16.25;10.40;;;;;;;8.63;100.00;98180.94;5006219;28;20070;-48
2021/12/16 10:17:23;;;;;;;16.38;10.98;;;;;;;8.91;100.00;98180.19;5003830;28;20057;-53
2021/12/16 10:19:53;;;;;;;15.85;9.80;;;;;;;8.79;100.00;98175.66;5008852;28;20061;-49
2021/12/16 10:22:25;;;;;;;15.75;9.82;;;;;;;8.53;100.00;98180.66;5004232;28;20089;-47
2021/12/16 10:25:19;;;;;;;16.98;9.40;;;;;;;8.45;100.00;98175.00;4990941;28;20441;-49
2021/12/16 10:28:02;;;;;;;15.32;9.15;;;;;;;8.77;100.00;98177.50;5005157;28;21481;-49
2021/12/16 10:30:50;;;;;;;15.15;9.88;;;;;;;8.11;100.00;98176.03;5007002;28;20121;-53
2021/12/16 10:33:23;;;;;;;14.27;9.63;;;;;;;8.47;100.00;98173.13;5010636;28;20049;-48
2021/12/16 10:35:59;;;;;;;14.75;8.98;;;;;;;8.24;100.00;98171.78;5014951;28;20065;-49
2021/12/16 10:38:27;;;;;;;14.88;9.23;;;;;;;8.29;100.00;98163.63;4990471;28;20055;-45
2021/12/16 10:40:57;;;;;;;14.48;9.32;;;;;;;8.48;100.00;98163.47;4984041;28;20070;-54
2021/12/16 10:43:33;;;;;;;14.80;9.88;;;;;;;7.84;100.00;98170.56;4986507;28;20073;-49
2021/12/16 10:46:05;;;;;;;14.50;10.10;;;;;;;7.96;100.00;98153.28;4987416;28;20504;-49
2021/12/16 10:48:34;;;;;;;14.25;9.63;;;;;;;7.99;100.00;98155.75;5011764;28;20477;-48
2021/12/16 10:51:13;;;;;;;14.13;8.73;;;;;;;8.43;100.00;98157.59;5005606;28;20100;-50
2021/12/16 10:54:05;;;;;;;14.70;9.20;;;;;;;8.05;100.00;98160.63;5008178;28;20073;-48
2021/12/16 10:56:39;;;;;;;14.90;9.93;;;;;;;8.25;100.00;98160.34;5014411;28;20069;-49
2021/12/16 10:59:10;;;;;;;15.80;9.90;;;;;;;8.22;100.00;98163.13;4993776;28;20469;-46
2021/12/16 11:01:46;;;;;;;16.85;9.50;;;;;;;8.16;100.00;98153.00;4982727;28;20086;-47
2021/12/16 11:04:19;;;;;;;14.38;9.20;;;;;;;8.47;100.00;98157.34;5001741;28;20523;-46
2021/12/16 11:06:52;;;;;;;14.00;9.25;;;;;;;8.15;100.00;98155.69;5008692;28;20376;-45
2021/12/16 11:09:34;;;;;;;13.35;9.30;;;;;;;8.49;100.00;98159.88;4978485;28;20077;-47
2021/12/16 11:12:21;;;;;;;12.70;8.82;;;;;;;8.42;100.00;98158.56;4988043;28;20070;-50
2021/12/16 11:14:52;;;;;;;14.80;9.07;;;;;;;8.06;100.00;98152.66;4984674;28;20587;-51
2021/12/16 11:17:24;;;;;;;13.68;8.27;;;;;;;8.50;100.00;98162.44;4983987;28;20540;-46
2021/12/16 11:19:57;;;;;;;15.02;9.05;;;;;;;8.43;100.00;98160.22;4994369;28;20057;-50
2021/12/16 11:22:30;;;;;;;13.25;8.23;;;;;;;8.33;100.00;98147.63;5009091;28;20081;-44
2021/12/16 11:24:59;;;;;;;13.40;8.43;;;;;;;8.46;100.00;98139.88;5010460;28;20460;-49
2021/12/16 11:27:32;;;;;;;11.85;7.95;;;;;;;8.44;100.00;98141.75;5011368;28;20045;-46
2021/12/16 11:30:27;;;;;;;13.65;8.73;;;;;;;8.35;100.00;98149.28;5004959;28;20532;-48
2021/12/16 11:33:05;;;;;;;11.98;8.00;;;;;;;7.77;100.00;98151.66;5007257;28;20070;-47
2021/12/16 11:35:41;;;;;;;11.60;7.40;;;;;;;8.16;100.00;98146.91;5019958;28;20065;-47
2021/12/16 11:38:14;;;;;;;12.50;7.72;;;;;;;8.09;100.00;98149.88;4997778;28;20070;-54
2021/12/16 11:41:07;;;;;;;11.98;7.70;;;;;;;8.44;100.00;98146.19;4980244;28;20533;-47
2021/12/16 11:43:47;;;;;;;11.48;7.70;;;;;;;7.99;100.00;98147.84;4976398;28;20097;-44
2021/12/16 11:46:25;;;;;;;12.88;8.07;;;;;;;8.20;100.00;98151.03;4986306;28;20092;-45
2021/12/16 11:49:24;;;;;;;11.98;7.72;;;;;;;8.55;100.00;98152.47;5003708;28;20087;-43
2021/12/16 11:51:59;;;;;;;12.60;8.75;;;;;;;8.44;100.00;98148.81;5012750;28;20090;-51
2021/12/16 11:54:32;;;;;;;12.30;8.50;;;;;;;8.18;100.00;98160.78;5012561;28;20061;-44
2021/12/16 11:57:07;;;;;;;14.60;9.40;;;;;;;8.44;100.00;98159.31;5002514;28;20073;-45
2021/12/16 11:59:39;;;;;;;12.68;8.57;;;;;;;8.50;100.00;98162.44;4992985;28;20066;-49
2021/12/16 12:02:21;;;;;;;15.15;9.35;;;;;;;8.69;100.00;98158.72;4991261;28;20073;-49
2021/12/16 12:04:50;;;;;;;15.38;10.15;;;;;;;8.72;100.00;98155.91;4997261;28;20230;-47
2021/12/16 12:07:18;;;;;;;13.65;8.88;;;;;;;8.50;100.00;98161.59;4987089;28;20093;-50
2021/12/16 12:09:49;;;;;;;14.68;9.48;;;;;;;8.35;100.00;98167.69;4986660;28;20058;-46
2021/12/16 12:12:41;;;;;;;15.90;9.75;;;;;;;8.40;100.00;98165.69;5001689;28;20081;-46
2021/12/16 12:15:13;;;;;;;14.13;9.10;;;;;;;8.48;100.00;98160.81;5013703;28;20483;-46
2021/12/16 12:17:49;;;;;;;15.48;9.77;;;;;;;8.02;100.00;98156.41;5010945;28;20096;-46
2021/12/16 12:20:18;;;;;;;16.42;10.35;;;;;;;8.25;100.00;98151.59;5000302;28;20085;-45
2021/12/16 12:22:50;;;;;;;14.27;9.50;;;;;;;8.39;100.00;98151.69;5007594;28;20095;-50
2021/12/16 12:25:19;;;;;;;14.55;9.48;;;;;;;7.88;100.00;98152.84;5002781;28;20086;-51
2021/12/16 12:27:48;;;;;;;13.00;8.95;;;;;;;7.91;100.00;98145.63;4984593;28;20085;-48
2021/12/16 12:30:19;;;;;;;13.48;9.50;;;;;;;8.09;100.00;98146.41;4984986;28;20061;-46
2021/12/16 12:32:48;;;;;;;;;;;;;;;8.13;100.00;98141.81;4983959;28;20540;-50
2021/12/16 12:35:24;;;;;;;12.63;8.57;;;;;;;8.32;100.00;98145.91;4981170;28;19965;-46
2021/12/16 12:37:59;;;;;;;12.20;8.32;;;;;;;8.36;100.00;98135.22;4991487;28;20531;-49
2021/12/16 12:40:30;;;;;;;12.15;8.80;;;;;;;8.34;100.00;98143.19;5004453;28;20064;-51
2021/12/16 12:42:59;;;;;;;13.25;9.10;;;;;;;8.41;100.00;98135.84;5008662;28;20089;-50
2021/12/16 12:45:34;;;;;;;14.02;9.05;;;;;;;8.33;100.00;98144.16;5001278;28;20069;-46
2021/12/16 12:48:05;;;;;;;12.23;8.63;;;;;;;8.60;100.00;98151.34;4981944;28;20109;-51
2021/12/16 12:50:37;;;;;;;11.80;8.32;;;;;;;8.90;100.00;98152.16;4996364;28;20076;-46
2021/12/16 12:53:12;;;;;;;12.30;8.07;;;;;;;8.45;100.00;98151.31;5014551;28;20073;-47
2021/12/16 12:55:42;;;;;;;10.52;8.18;;;;;;;8.89;100.00;98150.47;5001597;28;20110;-51
2021/12/16 12:58:13;;;;;;;11.65;7.68;;;;;;;8.98;100.00;98149.94;4983453;28;20104;-47
2021/12/16 13:00:47;;;;;;;11.15;8.13;;;;;;;8.97;100.00;98155.28;5011342;28;20586;-44
2021/12/16 13:03:26;;;;;;;10.70;7.72;;;;;;;9.10;100.00;98150.97;5000769;28;20073;-51
2021/12/16 13:05:57;;;;;;;11.38;8.10;;;;;;;9.27;100.00;98145.50;5006027;28;20078;-46
2021/12/16 13:08:27;;;;;;;11.90;7.68;;;;;;;8.59;100.00;98158.41;4992791;28;20081;-48
2021/12/16 13:10:59;;;;;;;11.20;8.43;;;;;;;8.98;100.00;98151.69;4983395;28;20074;-48
2021/12/16 13:13:33;;;;;;;15.27;8.60;;;;;;;9.09;100.00;98149.28;4983332;28;20556;-47
2021/12/16 13:16:51;;;;;;;12.00;8.02;;;;;;;9.09;100.00;98153.69;4986742;28;20094;-44
2021/12/16 13:25:53;;;;;;;11.00;8.38;;;;;;;8.79;100.00;98151.97;5011046;28;20078;-51
2021/12/16 13:28:22;;;;;;;9.63;7.20;;;;;;;8.90;100.00;98149.53;5003193;28;20439;-44
2021/12/16 13:30:59;;;;;;;10.90;7.75;;;;;;;8.74;100.00;98147.00;5002710;28;20073;-50
2021/12/16 13:33:39;;;;;;;11.30;8.10;;;;;;;9.21;100.00;98145.03;5005195;28;20077;-47
2021/12/16 13:36:16;;;;;;;10.35;7.03;;;;;;;9.02;100.00;98156.69;5010378;28;20072;-45
2021/12/16 13:38:47;;;;;;;9.48;7.35;;;;;;;8.90;100.00;98152.16;4995925;28;20081;-49